Time;durP1;ratioP1;P1;durP2;ratioP2;P2;SDS_P1;SDS_P2;PMS_P1;PMS_P2;Temp;Humidity;BMP_temperature;BMP_pressure;BME280_temperature;BME280_humidity;BME280_pressure;Samples;Min_cycle;Max_cycle;Signal;HPM_P1;HPM_P2
2021/10/09 00:01:09;;;;;;;21.20;9.50;;;6.90;97.30;;;;;;5073542;28;20215;-79
2021/10/09 00:03:35;;;;;;;21.93;8.97;;;6.90;97.30;;;;;;5068748;28;20226;-79
2021/10/09 00:06:01;;;;;;;24.37;9.73;;;6.80;97.30;;;;;;5070024;28;20223;-79
2021/10/09 00:08:27;;;;;;;16.57;7.80;;;6.80;97.30;;;;;;5070341;28;20229;-79
2021/10/09 00:10:52;;;;;;;20.20;9.57;;;6.80;97.30;;;;;;5073731;28;20847;-79
2021/10/09 00:13:18;;;;;;;23.07;9.17;;;6.80;97.30;;;;;;5069306;28;20425;-79
2021/10/09 00:15:44;;;;;;;20.43;8.73;;;6.80;97.30;;;;;;5068889;28;20292;-79
2021/10/09 00:18:09;;;;;;;24.00;9.37;;;6.70;97.30;;;;;;5066721;28;20178;-79
2021/10/09 00:20:35;;;;;;;23.87;10.17;;;6.70;97.30;;;;;;5064502;28;20171;-79
2021/10/09 00:23:02;;;;;;;26.77;10.33;;;6.70;97.30;;;;;;5069619;28;20190;-79
2021/10/09 00:25:27;;;;;;;23.70;9.40;;;6.70;97.30;;;;;;5064019;28;20417;-79
2021/10/09 00:27:53;;;;;;;32.43;11.50;;;6.70;97.30;;;;;;5063628;28;20415;-79
2021/10/09 00:30:19;;;;;;;24.50;9.73;;;6.60;97.30;;;;;;5061428;28;20179;-79
2021/10/09 00:32:45;;;;;;;31.13;10.70;;;6.60;97.30;;;;;;5064483;28;20179;-79
2021/10/09 00:35:10;;;;;;;22.30;10.53;;;6.60;97.30;;;;;;5067159;28;20528;-79
2021/10/09 00:37:36;;;;;;;20.53;9.37;;;6.60;97.30;;;;;;5068829;28;20672;-79
2021/10/09 00:40:03;;;;;;;19.77;9.77;;;6.60;97.30;;;;;;5068972;28;20551;-79
2021/10/09 00:42:28;;;;;;;18.07;9.60;;;6.60;97.30;;;;;;5065154;28;20171;-79
2021/10/09 00:44:54;;;;;;;25.70;9.40;;;6.60;97.30;;;;;;5064273;28;20437;-77
2021/10/09 00:47:24;;;;;;;20.93;9.10;;;6.60;97.30;;;;;;5068939;28;20172;-79
2021/10/09 00:49:49;;;;;;;21.03;10.20;;;6.50;97.30;;;;;;5064139;28;20164;-79
2021/10/09 00:52:16;;;;;;;21.53;9.37;;;6.50;97.30;;;;;;5067478;28;20822;-79
2021/10/09 00:54:46;;;;;;;25.80;10.27;;;6.50;97.30;;;;;;5068501;28;20199;-79
2021/10/09 00:57:16;;;;;;;22.97;10.57;;;6.50;97.30;;;;;;5068700;28;20492;-79
2021/10/09 00:59:43;;;;;;;27.93;9.70;;;6.40;97.30;;;;;;5070510;28;20429;-79
2021/10/09 01:02:08;;;;;;;21.23;9.47;;;6.40;97.30;;;;;;5065905;28;20415;-79
2021/10/09 01:04:36;;;;;;;20.80;9.23;;;6.40;97.30;;;;;;5064176;28;20437;-80
2021/10/09 01:07:03;;;;;;;23.47;9.53;;;6.40;97.30;;;;;;5070301;28;20204;-78
2021/10/09 01:09:29;;;;;;;22.40;9.53;;;6.40;97.30;;;;;;5066455;28;20946;-78
2021/10/09 01:11:54;;;;;;;25.47;9.37;;;6.40;97.30;;;;;;5062667;28;20413;-78
2021/10/09 01:14:20;;;;;;;21.20;10.33;;;6.30;97.30;;;;;;5065876;28;20200;-78
2021/10/09 01:16:46;;;;;;;24.47;9.93;;;6.30;97.30;;;;;;5062411;28;20450;-78
2021/10/09 01:19:12;;;;;;;23.47;10.00;;;6.30;97.30;;;;;;5062693;28;20174;-78
2021/10/09 01:21:39;;;;;;;25.30;10.00;;;6.30;97.30;;;;;;5063515;28;20172;-78
2021/10/09 01:24:05;;;;;;;29.63;9.23;;;6.30;97.30;;;;;;5067058;28;20432;-78
2021/10/09 01:26:30;;;;;;;27.03;11.20;;;6.30;97.30;;;;;;5067588;28;20426;-78
2021/10/09 01:28:56;;;;;;;18.53;10.30;;;6.30;97.30;;;;;;5064586;28;20176;-78
2021/10/09 01:31:22;;;;;;;26.10;11.97;;;6.40;97.30;;;;;;5067635;28;20179;-78
2021/10/09 01:33:47;;;;;;;32.80;13.07;;;6.40;97.30;;;;;;5066856;28;20473;-78
2021/10/09 01:36:13;;;;;;;20.97;10.37;;;6.40;97.30;;;;;;5067512;28;20192;-79
2021/10/09 01:38:39;;;;;;;22.20;11.80;;;6.40;97.30;;;;;;5060065;28;20179;-79
2021/10/09 01:41:07;;;;;;;20.83;10.37;;;6.40;97.30;;;;;;5063015;28;20441;-79
2021/10/09 01:43:33;;;;;;;19.77;9.37;;;6.40;97.30;;;;;;5062537;28;20433;-79
2021/10/09 01:45:59;;;;;;;22.70;9.20;;;6.40;97.30;;;;;;5061773;28;20411;-80
2021/10/09 01:48:36;;;;;;;25.67;10.47;;;6.30;97.30;;;;;;5065380;28;20423;-80
2021/10/09 01:51:03;;;;;;;28.73;10.87;;;6.30;97.30;;;;;;5066342;28;20406;-79
2021/10/09 01:53:29;;;;;;;26.50;11.87;;;6.30;97.30;;;;;;5064893;28;20439;-80
2021/10/09 01:55:55;;;;;;;20.80;8.97;;;6.30;97.30;;;;;;5064238;28;20524;-80
2021/10/09 01:58:21;;;;;;;27.17;11.67;;;6.30;97.30;;;;;;5061686;28;20233;-80
2021/10/09 02:00:46;;;;;;;23.00;10.60;;;6.20;97.30;;;;;;5067919;28;20210;-80
2021/10/09 02:03:14;;;;;;;21.17;9.83;;;6.20;97.30;;;;;;5065745;28;20185;-79
2021/10/09 02:05:40;;;;;;;25.37;10.70;;;6.10;97.30;;;;;;5067057;28;20422;-80
2021/10/09 02:08:06;;;;;;;25.97;10.00;;;6.10;97.30;;;;;;5067253;28;20844;-79
2021/10/09 02:10:32;;;;;;;24.30;11.33;;;6.10;97.30;;;;;;5067174;28;20183;-78
2021/10/09 02:13:03;;;;;;;24.77;10.50;;;6.10;97.30;;;;;;5066942;28;20817;-79
2021/10/09 02:15:35;;;;;;;22.90;10.10;;;6.10;97.30;;;;;;5067962;28;20446;-78
2021/10/09 02:18:29;;;;;;;19.63;9.40;;;6.10;97.30;;;;;;5069084;28;20410;-79
2021/10/09 02:26:17;;;;;;;21.30;10.13;;;6.10;97.30;;;;;;5064752;28;20439;-79
2021/10/09 02:28:43;;;;;;;27.87;10.20;;;6.10;97.30;;;;;;5060784;28;20982;-79
2021/10/09 02:31:09;;;;;;;26.23;10.67;;;6.00;97.30;;;;;;5060682;28;20697;-79
2021/10/09 02:33:34;;;;;;;32.20;10.30;;;6.10;97.30;;;;;;5061317;28;20207;-79
2021/10/09 02:36:00;;;;;;;25.67;10.23;;;6.10;97.30;;;;;;5058480;28;20191;-79
2021/10/09 02:38:26;;;;;;;22.37;10.80;;;6.00;97.30;;;;;;5066445;28;20661;-78
2021/10/09 02:40:51;;;;;;;27.13;11.70;;;6.10;97.30;;;;;;5064401;28;20489;-79
2021/10/09 02:43:17;;;;;;;31.27;11.90;;;6.10;97.30;;;;;;5063129;28;20168;-80
2021/10/09 02:45:43;;;;;;;20.37;9.97;;;6.00;97.30;;;;;;5060193;28;20187;-79
2021/10/09 02:48:09;;;;;;;23.90;9.37;;;6.10;97.30;;;;;;5063113;28;20267;-79
2021/10/09 02:50:35;;;;;;;26.40;10.03;;;6.00;97.30;;;;;;5061415;28;20444;-79
2021/10/09 02:53:01;;;;;;;32.13;9.90;;;6.00;97.30;;;;;;5062035;28;20413;-79
2021/10/09 02:55:27;;;;;;;18.53;9.90;;;6.00;97.30;;;;;;5060941;28;21058;-79
2021/10/09 02:57:53;;;;;;;23.53;9.83;;;6.00;97.30;;;;;;5062949;28;20206;-78
2021/10/09 03:00:21;;;;;;;24.70;10.50;;;6.00;97.30;;;;;;5059474;28;20215;-77
2021/10/09 03:02:47;;;;;;;22.50;10.57;;;6.00;97.30;;;;;;5064952;28;20409;-78
2021/10/09 03:05:13;;;;;;;24.37;10.53;;;6.00;97.30;;;;;;5060893;28;20817;-78
2021/10/09 03:07:40;;;;;;;26.33;10.93;;;5.90;97.30;;;;;;5064133;28;20188;-78
2021/10/09 03:10:07;;;;;;;21.10;10.40;;;5.90;97.30;;;;;;5063630;28;20485;-77
2021/10/09 03:12:33;;;;;;;22.60;10.77;;;5.90;97.30;;;;;;5059198;28;20937;-78
2021/10/09 03:14:59;;;;;;;17.20;9.07;;;5.80;97.30;;;;;;5063655;28;20525;-79
2021/10/09 03:17:24;;;;;;;23.13;12.13;;;5.80;97.30;;;;;;5062272;28;20171;-78
2021/10/09 03:19:50;;;;;;;26.63;10.43;;;5.80;97.30;;;;;;5061383;28;20172;-77
2021/10/09 03:22:16;;;;;;;25.17;12.33;;;5.80;97.30;;;;;;5067820;28;20310;-79
2021/10/09 03:24:41;;;;;;;23.17;12.23;;;5.70;97.30;;;;;;5065950;28;20199;-78
2021/10/09 03:27:07;;;;;;;30.33;13.00;;;5.70;97.30;;;;;;5059367;28;20206;-78
2021/10/09 03:29:33;;;;;;;26.03;11.10;;;5.70;97.30;;;;;;5062949;28;20187;-78
2021/10/09 03:31:59;;;;;;;29.90;12.90;;;5.70;97.30;;;;;;5058377;28;20175;-78
2021/10/09 03:34:25;;;;;;;28.47;10.97;;;5.60;97.30;;;;;;5066258;28;20239;-78
2021/10/09 03:36:50;;;;;;;26.37;11.13;;;5.60;97.30;;;;;;5062531;28;20194;-78
2021/10/09 03:39:19;;;;;;;27.73;13.03;;;5.60;97.30;;;;;;5059693;28;20864;-78
2021/10/09 03:41:51;;;;;;;29.67;13.10;;;5.60;97.30;;;;;;5060284;28;20259;-78
2021/10/09 03:44:16;;;;;;;31.87;11.77;;;5.50;97.30;;;;;;5061558;28;20426;-78
2021/10/09 03:46:57;;;;;;;29.63;12.87;;;5.50;97.30;;;;;;5067215;28;20429;-79
2021/10/09 03:54:50;;;;;;;25.13;10.43;;;5.40;97.30;;;;;;5053828;28;21122;-77
2021/10/09 03:57:16;;;;;;;22.07;9.53;;;5.40;97.30;;;;;;5052571;28;20497;-77
2021/10/09 03:59:42;;;;;;;22.67;9.97;;;5.40;97.30;;;;;;5050559;28;20171;-78
2021/10/09 04:02:07;;;;;;;24.67;11.37;;;5.40;97.30;;;;;;5051088;28;20168;-77
2021/10/09 04:04:33;;;;;;;30.13;10.23;;;5.40;97.30;;;;;;5052552;28;20196;-78
2021/10/09 04:06:58;;;;;;;26.40;10.53;;;5.40;97.30;;;;;;5054231;28;20187;-78
2021/10/09 04:09:24;;;;;;;23.80;10.50;;;5.40;97.30;;;;;;5054021;28;20168;-77
2021/10/09 04:11:49;;;;;;;23.70;11.30;;;5.40;97.30;;;;;;5053599;28;20233;-78
2021/10/09 04:14:15;;;;;;;20.67;8.67;;;5.40;97.30;;;;;;5053063;28;20204;-78
2021/10/09 04:16:41;;;;;;;26.77;9.23;;;5.40;97.30;;;;;;5053897;28;20230;-78
2021/10/09 04:19:06;;;;;;;25.93;11.27;;;5.40;97.30;;;;;;5053774;28;20174;-77
2021/10/09 04:21:32;;;;;;;24.33;10.50;;;5.30;97.30;;;;;;5055351;28;20172;-77
2021/10/09 04:23:58;;;;;;;23.03;10.40;;;5.30;97.30;;;;;;5057355;28;20257;-78
2021/10/09 04:26:23;;;;;;;23.07;9.80;;;5.30;97.30;;;;;;5059872;28;20175;-78
2021/10/09 04:28:49;;;;;;;32.27;10.70;;;5.30;97.30;;;;;;5056224;28;20506;-77
2021/10/09 04:31:14;;;;;;;20.77;10.33;;;5.30;97.30;;;;;;5057848;28;20168;-77
2021/10/09 04:33:40;;;;;;;18.80;9.33;;;5.20;97.30;;;;;;5057289;28;20217;-77
2021/10/09 04:36:08;;;;;;;25.97;9.37;;;5.20;97.30;;;;;;5056680;28;20253;-78
2021/10/09 04:38:34;;;;;;;24.20;10.57;;;5.20;97.30;;;;;;5057447;28;20156;-78
2021/10/09 04:40:59;;;;;;;22.90;9.73;;;5.10;97.30;;;;;;5055654;28;20440;-78
2021/10/09 04:43:25;;;;;;;18.50;10.10;;;5.10;97.30;;;;;;5064961;28;20422;-78
2021/10/09 04:45:50;;;;;;;29.20;10.83;;;5.10;97.30;;;;;;5065624;28;20193;-79
2021/10/09 04:48:16;;;;;;;21.47;8.90;;;5.10;97.30;;;;;;5076862;28;20312;-78
2021/10/09 04:50:41;;;;;;;22.37;9.70;;;5.00;97.30;;;;;;5075209;28;20190;-78
2021/10/09 04:53:07;;;;;;;20.33;9.40;;;5.00;97.30;;;;;;5074172;28;20171;-77
2021/10/09 04:55:33;;;;;;;22.00;10.60;;;5.00;97.30;;;;;;5073910;28;20243;-78
2021/10/09 04:57:58;;;;;;;21.10;9.53;;;4.90;97.30;;;;;;5075887;28;20229;-77
2021/10/09 05:00:24;;;;;;;20.00;9.23;;;4.90;97.30;;;;;;5074486;28;20333;-78
2021/10/09 05:02:49;;;;;;;27.50;10.20;;;4.80;97.30;;;;;;5074071;28;20175;-77
2021/10/09 05:05:15;;;;;;;31.13;9.23;;;4.80;97.30;;;;;;5074013;28;20199;-78
2021/10/09 05:07:40;;;;;;;34.53;12.90;;;4.80;97.30;;;;;;5074017;28;20221;-79
2021/10/09 05:10:08;;;;;;;24.90;12.20;;;4.80;97.30;;;;;;5069220;28;20569;-79
2021/10/09 05:12:35;;;;;;;21.77;9.33;;;4.80;97.30;;;;;;5054740;28;20183;-79
2021/10/09 05:15:01;;;;;;;18.73;9.23;;;4.70;97.30;;;;;;5055242;28;20845;-78
2021/10/09 05:17:26;;;;;;;22.40;9.90;;;4.70;97.30;;;;;;5056371;28;20510;-78
2021/10/09 05:19:52;;;;;;;24.20;10.47;;;4.70;97.30;;;;;;5056797;28;20179;-77
2021/10/09 05:22:17;;;;;;;19.17;9.10;;;4.70;97.30;;;;;;5056233;28;20180;-79
2021/10/09 05:24:43;;;;;;;22.00;11.23;;;4.60;97.30;;;;;;5064706;28;20482;-78
2021/10/09 05:27:10;;;;;;;25.13;10.27;;;4.60;97.30;;;;;;5067145;28;20192;-79
2021/10/09 05:29:35;;;;;;;22.03;9.17;;;4.60;97.30;;;;;;5066946;28;20542;-78
2021/10/09 05:32:05;;;;;;;35.83;13.10;;;4.60;97.30;;;;;;5062440;28;20429;-78
2021/10/09 05:34:31;;;;;;;31.17;12.23;;;4.70;97.30;;;;;;5064231;28;20199;-79
2021/10/09 05:36:58;;;;;;;24.00;11.70;;;4.60;97.30;;;;;;5063035;28;20563;-78
2021/10/09 05:39:24;;;;;;;21.50;9.43;;;4.60;97.30;;;;;;5062727;28;20172;-78
2021/10/09 05:41:50;;;;;;;33.73;11.27;;;4.60;97.30;;;;;;5068879;28;20437;-78
2021/10/09 05:44:15;;;;;;;22.47;10.27;;;4.50;97.30;;;;;;5056441;28;21082;-79
2021/10/09 05:46:41;;;;;;;21.13;10.40;;;4.50;97.30;;;;;;5055768;28;20180;-78
2021/10/09 05:49:07;;;;;;;19.30;9.90;;;4.50;97.30;;;;;;5057044;28;20180;-79
2021/10/09 05:51:39;;;;;;;26.97;11.57;;;4.50;97.30;;;;;;5074463;28;20179;-77
2021/10/09 05:56:44;;;;;;;24.40;10.53;;;4.50;97.30;;;;;;5063026;28;20556;-78
2021/10/09 06:02:12;;;;;;;27.03;12.10;;;4.50;97.30;;;;;;5057403;28;20922;-79
2021/10/09 06:47:48;;;;;;;33.97;14.97;;;5.30;97.30;;;;;;5057722;28;20401;-76
2021/10/09 07:00:53;;;;;;;30.17;11.80;;;5.50;97.30;;;;;;5056913;28;20469;-77
2021/10/09 07:03:22;;;;;;;25.63;10.57;;;5.60;97.30;;;;;;5056335;28;20414;-79
2021/10/09 07:05:48;;;;;;;35.10;13.30;;;5.60;97.30;;;;;;5059758;28;20837;-78
2021/10/09 07:08:14;;;;;;;33.03;11.90;;;5.70;97.30;;;;;;5062096;28;20504;-78
2021/10/09 07:10:44;;;;;;;29.87;11.60;;;5.70;97.30;;;;;;5062869;28;20513;-79
2021/10/09 07:13:10;;;;;;;33.20;13.63;;;5.80;97.30;;;;;;5062228;28;20413;-78
2021/10/09 07:15:36;;;;;;;27.10;12.27;;;5.80;97.30;;;;;;5061752;28;21060;-78
2021/10/09 07:18:03;;;;;;;25.53;11.30;;;5.90;97.30;;;;;;5062849;28;20179;-78
2021/10/09 07:20:29;;;;;;;29.53;11.93;;;6.00;97.30;;;;;;5062030;28;20521;-78
2021/10/09 07:22:55;;;;;;;28.23;11.67;;;6.10;97.30;;;;;;5063321;28;20450;-78
2021/10/09 07:25:21;;;;;;;31.23;12.63;;;6.20;97.30;;;;;;5062818;28;20434;-78
2021/10/09 07:27:47;;;;;;;28.07;11.63;;;6.20;97.30;;;;;;5059928;28;20421;-78
2021/10/09 07:30:13;;;;;;;35.77;13.57;;;6.30;97.30;;;;;;5061265;28;20434;-78
2021/10/09 07:32:39;;;;;;;30.77;11.23;;;6.40;97.30;;;;;;5068383;28;20218;-78
2021/10/09 07:35:05;;;;;;;33.40;12.67;;;6.40;97.30;;;;;;5074773;28;20460;-78
2021/10/09 07:37:30;;;;;;;28.53;10.70;;;6.50;97.30;;;;;;5060735;28;20648;-77
2021/10/09 07:39:56;;;;;;;30.37;11.57;;;6.60;97.30;;;;;;5068525;28;20437;-78
2021/10/09 07:42:22;;;;;;;24.40;11.70;;;6.60;97.30;;;;;;5059023;28;20182;-78
2021/10/09 07:44:49;;;;;;;29.03;11.80;;;6.70;97.30;;;;;;5068301;28;20904;-77
2021/10/09 07:47:16;;;;;;;25.70;12.43;;;6.80;97.30;;;;;;5070493;28;20177;-77
2021/10/09 07:49:42;;;;;;;25.53;11.47;;;6.90;97.30;;;;;;5057533;28;20422;-77
2021/10/09 07:52:08;;;;;;;31.40;11.27;;;7.00;97.30;;;;;;5064136;28;20409;-77
2021/10/09 07:54:34;;;;;;;27.03;10.90;;;7.00;97.30;;;;;;5068729;28;20191;-77
2021/10/09 07:56:59;;;;;;;29.83;11.50;;;7.00;97.30;;;;;;5065184;28;20453;-77
2021/10/09 07:59:25;;;;;;;25.43;11.80;;;7.10;97.30;;;;;;5077873;28;20261;-77
2021/10/09 08:01:51;;;;;;;24.43;11.20;;;7.20;97.30;;;;;;5078320;28;20234;-77
2021/10/09 08:04:17;;;;;;;34.63;12.40;;;7.20;97.30;;;;;;5079656;28;20328;-77
2021/10/09 08:06:43;;;;;;;28.33;11.20;;;7.20;97.30;;;;;;5080334;28;20421;-77
2021/10/09 08:09:09;;;;;;;28.93;11.60;;;7.30;97.30;;;;;;5079250;28;20421;-77
2021/10/09 08:11:35;;;;;;;28.53;11.83;;;7.30;97.30;;;;;;5062714;28;20187;-77
2021/10/09 08:14:02;;;;;;;25.50;10.73;;;7.50;97.30;;;;;;5057315;28;20536;-77
2021/10/09 08:16:28;;;;;;;27.53;12.23;;;7.60;97.30;;;;;;5060008;28;20207;-77
2021/10/09 08:18:53;;;;;;;26.57;10.73;;;7.70;97.30;;;;;;5059180;28;21154;-77
2021/10/09 08:21:24;;;;;;;34.50;11.73;;;7.70;97.30;;;;;;5066023;28;20197;-77
2021/10/09 08:39:45;;;;;;;25.30;10.30;;;8.50;97.30;;;;;;5077642;28;20514;-77
2021/10/09 08:42:14;;;;;;;24.90;10.60;;;8.60;97.30;;;;;;5076210;28;20171;-77
2021/10/09 08:44:40;;;;;;;26.40;12.10;;;8.70;97.30;;;;;;5075995;28;20970;-77
2021/10/09 08:47:11;;;;;;;29.57;10.23;;;8.80;97.30;;;;;;5077513;28;20413;-77
2021/10/09 08:49:38;;;;;;;23.53;10.90;;;8.80;97.30;;;;;;5078812;28;20163;-77
2021/10/09 08:52:05;;;;;;;28.77;11.10;;;8.90;97.30;;;;;;5077189;28;20428;-77
2021/10/09 08:54:35;;;;;;;23.40;10.10;;;8.90;97.30;;;;;;5076980;28;20524;-77
2021/10/09 08:57:15;;;;;;;20.07;9.53;;;9.00;97.30;;;;;;5077277;28;20832;-77
2021/10/09 08:59:57;;;;;;;26.10;13.00;;;9.10;97.30;;;;;;5076383;28;20834;-76
2021/10/09 09:02:44;;;;;;;28.37;11.30;;;9.20;97.30;;;;;;5077423;28;20475;-77
2021/10/09 09:08:30;;;;;;;23.57;10.50;;;9.10;97.30;;;;;;5077463;28;20488;-77
2021/10/09 09:30:44;;;;;;;29.20;10.27;;;9.90;97.30;;;;;;5057888;28;20424;-77
2021/10/09 09:33:33;;;;;;;26.30;10.90;;;10.00;97.30;;;;;;5057635;28;20482;-78
2021/10/09 09:39:05;;;;;;;23.87;10.60;;;10.20;97.30;;;;;;5057221;28;20418;-77
2021/10/09 09:41:44;;;;;;;27.27;10.40;;;10.30;97.30;;;;;;5055316;28;20426;-78
2021/10/09 09:44:12;;;;;;;23.43;10.30;;;10.30;97.30;;;;;;5055035;28;20810;-76
2021/10/09 09:46:37;;;;;;;25.27;9.90;;;10.40;97.30;;;;;;5055688;28;20423;-77
2021/10/09 09:49:04;;;;;;;33.33;10.10;;;10.50;97.30;;;;;;5067073;28;21002;-78
2021/10/09 09:51:31;;;;;;;28.63;11.73;;;10.60;97.30;;;;;;5077150;28;20172;-77
2021/10/09 09:53:58;;;;;;;24.87;11.03;;;10.70;97.30;;;;;;5075359;28;20437;-78
2021/10/09 09:56:25;;;;;;;21.63;10.30;;;10.80;97.30;;;;;;5075159;28;20453;-78
2021/10/09 09:58:58;;;;;;;20.90;9.70;;;11.00;97.30;;;;;;5075985;28;20445;-78
2021/10/09 10:01:25;;;;;;;19.97;8.60;;;11.10;97.30;;;;;;5076074;28;20552;-77
2021/10/09 10:03:55;;;;;;;18.10;9.20;;;11.20;97.30;;;;;;5075896;28;20437;-77
2021/10/09 10:06:21;;;;;;;21.73;9.63;;;11.40;97.30;;;;;;5077211;28;20397;-77
2021/10/09 10:08:47;;;;;;;19.60;9.77;;;11.50;97.30;;;;;;5076929;28;20420;-78
2021/10/09 10:11:17;;;;;;;20.10;9.07;;;11.60;97.30;;;;;;5076723;28;20178;-77
2021/10/09 10:13:43;;;;;;;13.80;8.50;;;11.70;97.30;;;;;;5078496;28;20249;-77
2021/10/09 10:16:11;;;;;;;20.27;8.63;;;11.80;97.00;;;;;;5076881;28;20453;-77
2021/10/09 10:18:48;;;;;;;20.90;8.87;;;11.90;97.10;;;;;;5076343;28;20707;-78
2021/10/09 10:21:40;;;;;;;19.37;9.00;;;12.00;96.70;;;;;;5076930;28;21145;-78
2021/10/09 10:24:42;;;;;;;23.17;9.37;;;12.10;96.50;;;;;;5075426;28;20974;-78
2021/10/09 10:27:34;;;;;;;22.43;9.10;;;12.20;95.50;;;;;;5071161;28;21017;-78
2021/10/09 10:30:15;;;;;;;22.63;8.90;;;12.20;95.40;;;;;;5078373;28;20415;-77
2021/10/09 10:33:02;;;;;;;17.60;9.30;;;12.20;95.50;;;;;;5076134;28;20489;-78
2021/10/09 10:35:33;;;;;;;19.73;9.57;;;12.40;96.10;;;;;;5065237;28;20982;-78
2021/10/09 10:38:04;;;;;;;24.97;9.60;;;12.50;95.10;;;;;;5075807;28;21011;-77
2021/10/09 10:40:56;;;;;;;17.13;9.53;;;12.50;95.10;;;;;;5076061;28;20478;-77
2021/10/09 10:46:36;;;;;;;17.93;8.53;;;12.70;94.90;;;;;;5078271;28;20413;-78
2021/10/09 10:49:10;;;;;;;16.63;8.10;;;12.80;94.10;;;;;;5067636;28;20445;-77
2021/10/09 10:56:59;;;;;;;15.33;6.87;;;13.00;90.70;;;;;;5057531;28;20512;-78
2021/10/09 10:59:31;;;;;;;14.47;6.07;;;13.20;91.20;;;;;;5055204;28;20415;-78
2021/10/09 11:02:12;;;;;;;11.57;5.47;;;13.40;88.50;;;;;;5055053;28;20462;-78
2021/10/09 11:04:41;;;;;;;12.90;6.47;;;13.50;88.50;;;;;;5055323;28;20490;-78
2021/10/09 11:07:07;;;;;;;10.60;5.80;;;13.60;88.50;;;;;;5055673;28;20473;-79
2021/10/09 11:09:38;;;;;;;16.10;5.67;;;13.70;86.70;;;;;;5057719;28;20946;-78
2021/10/09 11:12:24;;;;;;;12.43;6.00;;;13.80;86.50;;;;;;5075393;28;20641;-77
2021/10/09 11:14:51;;;;;;;14.10;5.97;;;13.80;85.50;;;;;;5075438;28;20778;-77
2021/10/09 11:17:17;;;;;;;11.43;5.50;;;13.80;85.70;;;;;;5075252;28;20461;-78
2021/10/09 11:19:50;;;;;;;11.13;5.90;;;14.00;87.40;;;;;;5072135;28;20417;-77
2021/10/09 11:22:18;;;;;;;15.47;5.33;;;14.10;86.30;;;;;;5071006;28;20175;-77
2021/10/09 11:24:49;;;;;;;10.80;5.97;;;14.20;85.90;;;;;;5069367;28;20426;-77
2021/10/09 11:27:17;;;;;;;14.10;6.10;;;14.30;85.70;;;;;;5069126;28;20449;-77
2021/10/09 11:30:04;;;;;;;10.70;5.70;;;14.40;84.70;;;;;;5068861;28;20933;-78
2021/10/09 11:32:32;;;;;;;12.27;6.27;;;14.50;85.50;;;;;;5069809;28;20423;-78
2021/10/09 11:34:58;;;;;;;10.87;5.50;;;14.60;84.60;;;;;;5063811;28;20437;-78
2021/10/09 11:37:25;;;;;;;9.23;4.70;;;14.80;84.40;;;;;;5065915;28;20740;-78
2021/10/09 11:39:53;;;;;;;8.83;5.10;;;14.80;84.20;;;;;;5070660;28;20405;-78
2021/10/09 11:42:28;;;;;;;11.63;5.60;;;14.90;85.40;;;;;;5069450;28;20426;-78
2021/10/09 11:45:26;;;;;;;11.43;5.87;;;15.10;84.90;;;;;;5069582;28;20437;-78
2021/10/09 11:56:00;;;;;;;9.73;5.50;;;15.10;81.00;;;;;;5058688;28;20545;-78
2021/10/09 11:58:27;;;;;;;15.50;6.57;;;15.10;81.30;;;;;;5055494;28;20421;-77
2021/10/09 12:00:52;;;;;;;8.13;4.50;;;15.20;82.00;;;;;;5055151;28;20474;-77
2021/10/09 12:03:30;;;;;;;12.50;5.57;;;15.30;81.20;;;;;;5055824;28;20464;-77
2021/10/09 12:05:57;;;;;;;9.43;4.60;;;15.40;79.90;;;;;;5074745;28;20174;-78
2021/10/09 12:08:30;;;;;;;9.10;4.40;;;15.40;80.90;;;;;;5076745;28;20437;-78
2021/10/09 12:11:23;;;;;;;12.97;5.20;;;15.70;82.50;;;;;;5075055;28;20413;-78
2021/10/09 12:14:00;;;;;;;11.00;5.20;;;16.00;83.00;;;;;;5075342;28;20445;-78
2021/10/09 12:16:44;;;;;;;8.93;4.67;;;16.30;81.30;;;;;;5073646;28;20457;-78
2021/10/09 12:19:27;;;;;;;8.03;4.67;;;16.50;81.70;;;;;;5074960;28;20419;-78
2021/10/09 12:21:52;;;;;;;27.50;5.80;;;16.70;81.50;;;;;;5076203;28;20808;-78
2021/10/09 12:24:20;;;;;;;12.63;4.60;;;16.90;80.10;;;;;;5077596;28;20425;-78
2021/10/09 12:26:59;;;;;;;12.30;5.00;;;17.00;77.60;;;;;;5075237;28;20659;-78
2021/10/09 12:29:25;;;;;;;8.60;4.40;;;17.00;77.40;;;;;;5074597;28;20416;-78
2021/10/09 12:31:51;;;;;;;8.33;4.70;;;17.10;79.60;;;;;;5049998;28;20419;-78
2021/10/09 12:34:33;;;;;;;11.93;5.43;;;17.30;79.30;;;;;;5050042;28;20437;-78
2021/10/09 12:37:24;;;;;;;6.90;4.73;;;17.40;77.60;;;;;;5049676;28;20295;-77
2021/10/09 12:40:05;;;;;;;8.10;4.57;;;17.20;76.80;;;;;;5058729;28;20417;-77
2021/10/09 12:42:31;;;;;;;10.50;4.90;;;17.30;77.90;;;;;;5052537;28;20410;-78
2021/10/09 12:44:57;;;;;;;9.80;5.23;;;17.30;76.90;;;;;;5072793;28;20437;-77
2021/10/09 12:47:22;;;;;;;10.73;4.80;;;17.30;78.00;;;;;;5062118;28;20939;-77
2021/10/09 12:49:48;;;;;;;7.50;4.47;;;17.50;79.00;;;;;;5062980;28;20183;-77
2021/10/09 12:52:13;;;;;;;8.23;4.60;;;17.60;77.10;;;;;;5072670;28;20183;-77
2021/10/09 12:54:39;;;;;;;11.00;4.83;;;17.70;77.00;;;;;;5072393;28;20198;-77
2021/10/09 12:57:08;;;;;;;12.37;4.43;;;17.80;77.70;;;;;;5070299;28;20203;-77
2021/10/09 12:59:35;;;;;;;8.87;4.70;;;17.90;77.30;;;;;;5063276;28;20208;-77
2021/10/09 13:02:02;;;;;;;9.23;5.63;;;18.00;76.70;;;;;;5051929;28;20434;-77
2021/10/09 13:04:27;;;;;;;5.97;4.03;;;18.00;76.30;;;;;;5051739;28;20433;-77
2021/10/09 13:06:53;;;;;;;8.23;4.33;;;17.90;76.20;;;;;;5052091;28;20920;-77
2021/10/09 13:09:19;;;;;;;6.33;3.77;;;17.90;75.60;;;;;;5051653;28;20242;-78
2021/10/09 13:11:55;;;;;;;14.33;4.33;;;17.90;75.20;;;;;;5052469;28;20184;-78
2021/10/09 13:14:21;;;;;;;8.20;4.17;;;18.10;75.90;;;;;;5051736;28;20199;-77
2021/10/09 13:16:47;;;;;;;7.93;4.27;;;18.20;73.50;;;;;;5051357;28;20469;-79
2021/10/09 13:19:13;;;;;;;9.20;5.03;;;18.30;73.50;;;;;;5064427;28;20640;-77
2021/10/09 13:21:39;;;;;;;7.37;3.63;;;18.50;73.70;;;;;;5074781;28;20413;-78
2021/10/09 13:24:06;;;;;;;9.17;4.03;;;18.60;72.80;;;;;;5077248;28;20459;-77
2021/10/09 13:26:32;;;;;;;7.73;3.87;;;18.70;72.30;;;;;;5075978;28;20249;-77
2021/10/09 13:28:59;;;;;;;10.60;4.20;;;18.80;73.10;;;;;;5076635;28;20418;-77
2021/10/09 13:31:25;;;;;;;5.83;4.03;;;18.90;72.50;;;;;;5072363;28;20464;-76
2021/10/09 13:33:52;;;;;;;13.30;4.53;;;18.90;72.60;;;;;;5058287;28;20556;-78
2021/10/09 13:36:18;;;;;;;8.17;4.13;;;18.70;72.00;;;;;;5051174;28;20511;-79
2021/10/09 13:38:44;;;;;;;7.23;3.47;;;18.60;72.20;;;;;;5051706;28;20418;-79
2021/10/09 13:41:11;;;;;;;8.30;4.47;;;18.50;73.00;;;;;;5051460;28;20857;-79
2021/10/09 13:43:36;;;;;;;8.53;3.57;;;18.50;72.50;;;;;;5070610;28;20831;-78
2021/10/09 13:46:02;;;;;;;8.37;4.43;;;18.70;73.20;;;;;;5071212;28;20417;-79
2021/10/09 13:48:27;;;;;;;11.10;4.90;;;18.80;72.90;;;;;;5067237;28;20180;-79
2021/10/09 13:50:53;;;;;;;5.90;3.80;;;19.00;73.80;;;;;;5052256;28;20241;-78
2021/10/09 13:53:20;;;;;;;6.00;4.00;;;19.10;73.00;;;;;;5056090;28;20180;-78
2021/10/09 13:55:47;;;;;;;7.87;4.53;;;19.20;71.60;;;;;;5056746;28;20621;-78
2021/10/09 13:58:13;;;;;;;4.13;3.50;;;19.20;72.30;;;;;;5056458;28;20446;-78
2021/10/09 14:00:40;;;;;;;7.40;4.40;;;19.30;72.20;;;;;;5058320;28;20990;-77
2021/10/09 14:03:11;;;;;;;7.87;4.00;;;19.40;72.80;;;;;;5059421;28;20923;-80
2021/10/09 14:05:37;;;;;;;7.47;4.20;;;19.30;70.10;;;;;;5051979;28;20418;-79
2021/10/09 14:08:03;;;;;;;8.73;4.27;;;19.10;71.30;;;;;;5051853;28;20427;-81
2021/10/09 14:10:29;;;;;;;5.60;3.90;;;19.10;71.00;;;;;;5051858;28;20418;-81
2021/10/09 14:13:00;;;;;;;7.40;3.83;;;19.20;71.60;;;;;;5051852;28;20457;-78
2021/10/09 14:15:25;;;;;;;9.93;4.37;;;19.30;72.00;;;;;;5051066;28;20533;-80
2021/10/09 14:17:52;;;;;;;7.10;3.90;;;19.40;71.60;;;;;;5051253;28;20859;-78
2021/10/09 14:20:18;;;;;;;6.43;4.20;;;19.50;71.80;;;;;;5051240;28;20183;-78
2021/10/09 14:22:44;;;;;;;5.40;3.97;;;19.50;71.90;;;;;;5052541;28;20452;-78
2021/10/09 14:25:12;;;;;;;6.80;3.90;;;19.50;72.00;;;;;;5051905;28;20435;-78
2021/10/09 14:27:42;;;;;;;6.60;4.10;;;19.50;72.00;;;;;;5051231;28;20175;-78
2021/10/09 14:30:09;;;;;;;12.03;4.00;;;19.60;72.20;;;;;;5054407;28;20411;-79
2021/10/09 14:32:36;;;;;;;6.20;3.60;;;19.60;71.20;;;;;;5052304;28;20785;-79
2021/10/09 14:35:03;;;;;;;8.43;4.17;;;19.50;70.50;;;;;;5051591;28;20450;-80
2021/10/09 14:37:31;;;;;;;6.27;4.07;;;19.40;70.70;;;;;;5051246;28;20515;-79
2021/10/09 14:39:57;;;;;;;7.77;3.13;;;19.30;70.40;;;;;;5056213;28;20445;-79
2021/10/09 14:42:23;;;;;;;10.03;4.10;;;19.40;70.80;;;;;;5057503;28;20421;-79
2021/10/09 14:44:49;;;;;;;6.87;3.50;;;19.40;70.10;;;;;;5066412;28;20238;-77
2021/10/09 15:20:04;;;;;;;4.70;3.20;;;19.70;69.10;;;;;;5059694;28;20459;-77
2021/10/09 15:22:31;;;;;;;5.27;3.60;;;19.60;69.40;;;;;;5060528;28;20996;-77
2021/10/09 15:24:57;;;;;;;5.93;2.90;;;19.50;70.00;;;;;;5054913;28;20429;-78
2021/10/09 15:27:24;;;;;;;6.67;4.00;;;19.40;69.80;;;;;;5058523;28;20410;-77